createdAt,value
2023-05-11T00:02:06.138Z,17.52
2023-05-11T00:04:32.721Z,19.50
2023-05-11T00:06:59.303Z,16.83
2023-05-11T00:09:25.964Z,18.65
2023-05-11T00:11:53.173Z,26.67
2023-05-11T00:14:20.230Z,20.08
2023-05-11T00:16:47.037Z,19.77
2023-05-11T00:19:13.602Z,13.68
2023-05-11T00:21:41.026Z,17.48
2023-05-11T00:24:08.316Z,18.25
2023-05-11T00:26:35.196Z,16.98
2023-05-11T00:29:02.053Z,14.73
2023-05-11T00:31:30.623Z,22.23
2023-05-11T00:33:57.566Z,19.38
2023-05-11T00:36:24.176Z,19.25
2023-05-11T00:38:50.856Z,18.13
2023-05-11T00:41:17.611Z,22.53
2023-05-11T00:43:44.119Z,23.08
2023-05-11T00:46:11.000Z,18.90
2023-05-11T00:48:38.253Z,21.45
2023-05-11T00:51:06.156Z,18.67
2023-05-11T00:53:32.981Z,19.10
2023-05-11T00:55:59.527Z,14.82
2023-05-11T00:58:26.086Z,18.67
2023-05-11T01:00:52.794Z,24.33
2023-05-11T01:03:19.536Z,20.38
2023-05-11T01:05:49.507Z,18.40
2023-05-11T01:08:22.120Z,19.55
2023-05-11T01:10:59.017Z,19.92
2023-05-11T01:13:37.692Z,17.13
2023-05-11T01:16:17.603Z,20.73
2023-05-11T01:18:52.152Z,26.70
2023-05-11T01:21:19.446Z,17.90
2023-05-11T01:24:13.853Z,22.58
2023-05-11T01:26:59.288Z,19.55
2023-05-11T01:30:04.894Z,20.50
2023-05-11T01:32:36.434Z,18.20
2023-05-11T01:35:17.910Z,21.17
2023-05-11T01:37:49.281Z,17.85
2023-05-11T01:40:18.833Z,20.88
2023-05-11T01:42:49.367Z,20.13
2023-05-11T01:45:17.242Z,19.27
2023-05-11T01:47:47.920Z,21.20
2023-05-11T01:50:17.380Z,23.90
2023-05-11T01:52:49.079Z,22.55
2023-05-11T01:55:19.641Z,16.90
2023-05-11T01:57:47.777Z,22.67
2023-05-11T02:00:16.864Z,22.55
2023-05-11T02:02:47.590Z,23.83
2023-05-11T02:05:23.118Z,22.08
2023-05-11T02:07:51.389Z,23.30
2023-05-11T02:10:19.658Z,25.53
2023-05-11T02:12:48.584Z,22.88
2023-05-11T02:15:16.339Z,23.73
2023-05-11T02:17:44.033Z,21.27
2023-05-11T02:20:12.157Z,25.60
2023-05-11T02:22:39.789Z,19.97
2023-05-11T02:25:08.708Z,23.95
2023-05-11T02:27:39.064Z,26.42
2023-05-11T02:30:08.410Z,20.35
2023-05-11T02:32:38.233Z,24.88
2023-05-11T02:35:18.683Z,25.10
2023-05-11T02:37:47.875Z,24.35
2023-05-11T02:40:19.351Z,22.13
2023-05-11T02:42:52.967Z,23.38
2023-05-11T02:45:19.984Z,23.60
2023-05-11T02:47:53.284Z,28.77
2023-05-11T02:50:24.423Z,21.23
2023-05-11T02:52:55.105Z,22.60
2023-05-11T02:55:23.112Z,27.52
2023-05-11T02:57:50.077Z,23.13
2023-05-11T03:00:18.403Z,26.93
2023-05-11T03:02:45.386Z,21.50
2023-05-11T03:05:12.132Z,25.45
2023-05-11T03:07:38.997Z,28.17
2023-05-11T03:10:07.388Z,31.27
2023-05-11T03:12:35.262Z,25.83
2023-05-11T03:15:03.992Z,24.02
2023-05-11T03:17:31.956Z,25.90
2023-05-11T03:20:00.256Z,25.30
2023-05-11T03:22:27.797Z,27.92
2023-05-11T03:24:54.499Z,26.50
2023-05-11T03:27:22.063Z,25.33
2023-05-11T03:29:49.499Z,26.73
2023-05-11T03:32:16.427Z,23.83
2023-05-11T03:34:43.231Z,23.85
2023-05-11T03:37:12.661Z,26.93
2023-05-11T03:39:41.829Z,27.60
2023-05-11T03:42:09.652Z,28.55
2023-05-11T03:44:37.051Z,26.75
2023-05-11T03:47:04.293Z,26.38
2023-05-11T03:49:31.232Z,25.70
2023-05-11T03:51:58.018Z,28.67
2023-05-11T03:54:24.738Z,31.60
2023-05-11T03:56:52.141Z,26.23
2023-05-11T03:59:19.063Z,24.08
2023-05-11T04:01:45.980Z,30.17
2023-05-11T04:04:12.754Z,23.55
2023-05-11T04:06:39.520Z,28.08
2023-05-11T04:09:06.183Z,24.92
2023-05-11T04:11:36.835Z,22.45
2023-05-11T04:14:05.236Z,28.27
2023-05-11T04:16:31.856Z,25.05
2023-05-11T04:18:58.536Z,23.75
2023-05-11T04:21:25.079Z,28.30
2023-05-11T04:23:51.632Z,26.52
2023-05-11T04:26:50.610Z,29.37
2023-05-11T04:29:17.177Z,27.75
2023-05-11T04:31:43.677Z,25.10
2023-05-11T04:34:10.381Z,24.90
2023-05-11T04:36:36.995Z,28.20
2023-05-11T04:39:04.734Z,25.37
2023-05-11T04:41:31.502Z,28.42
2023-05-11T04:43:57.997Z,23.95
2023-05-11T04:46:24.601Z,28.67
2023-05-11T04:48:51.305Z,25.77
2023-05-11T04:51:17.942Z,24.40
2023-05-11T04:53:44.766Z,23.52
2023-05-11T04:56:12.034Z,24.23
2023-05-11T04:58:38.617Z,26.30
2023-05-11T05:01:05.255Z,30.70
2023-05-11T05:03:31.854Z,25.47
2023-05-11T05:05:58.460Z,27.00
2023-05-11T05:08:25.233Z,30.30
2023-05-11T05:10:51.764Z,26.73
2023-05-11T05:13:18.374Z,30.83
2023-05-11T05:18:39.250Z,28.80
2023-05-11T05:21:06.096Z,26.63
2023-05-11T05:23:33.371Z,26.75
2023-05-11T05:26:00.125Z,30.42
2023-05-11T05:28:26.802Z,29.00
2023-05-11T05:30:53.962Z,27.33
2023-05-11T05:33:20.793Z,29.58
2023-05-11T05:38:41.445Z,23.55
2023-05-11T05:41:08.290Z,31.10
2023-05-11T05:43:34.837Z,29.55
2023-05-11T05:46:03.028Z,28.50
2023-05-11T05:48:29.823Z,33.03
2023-05-11T05:50:56.338Z,30.48
2023-05-11T05:53:22.889Z,25.70
2023-05-11T05:55:54.496Z,24.50
2023-05-11T05:58:21.370Z,24.70
2023-05-11T06:00:47.921Z,24.45
2023-05-11T06:03:14.500Z,24.45
2023-05-11T06:05:41.198Z,27.00
2023-05-11T06:08:11.074Z,27.52
2023-05-11T06:10:38.537Z,24.27
2023-05-11T06:13:05.311Z,25.50
2023-05-11T06:15:32.068Z,24.85
2023-05-11T06:17:58.657Z,25.33
2023-05-11T06:20:25.340Z,23.48
2023-05-11T06:22:52.009Z,28.33
2023-05-11T06:25:18.615Z,21.50
2023-05-11T06:27:45.526Z,22.63
2023-05-11T06:30:13.676Z,20.30
2023-05-11T06:38:35.092Z,20.42
2023-05-11T06:41:01.624Z,21.40
2023-05-11T06:43:28.230Z,19.47
2023-05-11T06:45:54.911Z,19.92
2023-05-11T06:48:23.556Z,17.83
2023-05-11T06:50:50.353Z,19.08
2023-05-11T06:53:24.667Z,18.15
2023-05-11T06:55:51.700Z,16.47
2023-05-11T06:58:20.695Z,19.08
2023-05-11T07:00:47.604Z,15.65
2023-05-11T07:03:14.462Z,14.48
2023-05-11T07:05:41.173Z,19.15
2023-05-11T07:08:07.852Z,13.33
2023-05-11T07:13:28.613Z,18.08
2023-05-11T07:15:57.620Z,14.93
2023-05-11T07:18:24.580Z,14.27
2023-05-11T07:20:51.264Z,16.33
2023-05-11T07:23:17.997Z,10.60
2023-05-11T07:25:44.592Z,13.95
2023-05-11T07:28:12.751Z,18.55
2023-05-11T07:30:39.425Z,15.02
2023-05-11T07:33:06.721Z,13.70
2023-05-11T07:35:33.798Z,13.95
2023-05-11T07:38:00.436Z,11.25
2023-05-11T07:40:27.038Z,12.73
2023-05-11T07:42:54.480Z,13.30
2023-05-11T07:45:21.185Z,13.40
2023-05-11T07:47:47.740Z,11.88
2023-05-11T07:50:14.517Z,13.38
2023-05-11T07:52:41.103Z,15.00
2023-05-11T07:55:08.417Z,13.15
2023-05-11T07:57:35.153Z,9.20
2023-05-11T08:00:02.208Z,8.88
2023-05-11T08:02:28.909Z,12.38
2023-05-11T08:04:55.581Z,16.10
2023-05-11T08:07:22.574Z,13.55
2023-05-11T08:09:49.444Z,11.77
2023-05-11T08:12:16.288Z,14.95
2023-05-11T08:14:43.330Z,11.43
2023-05-11T08:17:10.191Z,11.40
2023-05-11T08:19:37.118Z,8.27
2023-05-11T08:22:03.747Z,8.18
2023-05-11T08:24:30.508Z,8.50
2023-05-11T08:26:57.308Z,7.70
2023-05-11T08:29:27.449Z,8.77
2023-05-11T08:31:54.658Z,9.82
2023-05-11T08:34:22.481Z,6.78
2023-05-11T08:36:49.544Z,7.30
2023-05-11T08:39:28.374Z,9.25
2023-05-11T08:42:05.711Z,7.03
2023-05-11T08:44:33.823Z,8.50
2023-05-11T08:47:18.820Z,7.20
2023-05-11T08:49:47.831Z,8.02
2023-05-11T08:52:16.326Z,6.30
2023-05-11T08:54:43.334Z,6.85
2023-05-11T08:57:13.497Z,6.38
2023-05-11T08:59:42.899Z,8.82
2023-05-11T09:02:14.479Z,7.03
2023-05-11T09:04:41.634Z,6.05
2023-05-11T09:07:09.812Z,7.38
2023-05-11T09:09:36.833Z,7.40
2023-05-11T09:12:04.145Z,7.22
2023-05-11T09:14:30.807Z,7.90
2023-05-11T09:16:58.912Z,6.57
2023-05-11T09:19:25.970Z,7.25
2023-05-11T09:21:53.234Z,6.63
2023-05-11T09:24:21.142Z,7.15
2023-05-11T09:26:48.292Z,9.43
2023-05-11T09:29:19.340Z,5.65
2023-05-11T09:31:47.469Z,5.93
2023-05-11T09:34:21.013Z,6.07
2023-05-11T09:36:54.109Z,6.25
2023-05-11T09:39:38.306Z,10.23
2023-05-11T09:45:08.894Z,6.72
2023-05-11T09:47:41.118Z,6.20
2023-05-11T09:50:18.298Z,7.93
2023-05-11T09:55:55.955Z,8.20
2023-05-11T09:58:22.731Z,6.25
2023-05-11T10:00:54.000Z,9.20
2023-05-11T10:03:20.930Z,9.00
2023-05-11T10:05:59.176Z,9.77
2023-05-11T10:08:30.800Z,8.50
2023-05-11T10:13:54.586Z,8.70
2023-05-11T10:19:16.803Z,20.73
2023-05-11T10:21:44.229Z,14.82
2023-05-11T10:24:11.569Z,13.88
2023-05-11T10:26:38.871Z,15.77
2023-05-11T10:29:06.036Z,12.55
2023-05-11T10:31:33.146Z,16.43
2023-05-11T10:34:01.542Z,12.70
2023-05-11T10:36:29.360Z,12.88
2023-05-11T10:38:56.128Z,12.35
2023-05-11T10:41:47.380Z,14.82
2023-05-11T10:44:26.755Z,12.43
2023-05-11T10:47:03.366Z,8.88
2023-05-11T10:49:45.866Z,8.70
2023-05-11T10:52:28.853Z,8.75
2023-05-11T10:55:11.572Z,10.48
2023-05-11T10:58:02.941Z,9.37
2023-05-11T11:04:14.409Z,8.98
2023-05-11T11:06:43.467Z,8.02
2023-05-11T11:09:16.128Z,6.70
2023-05-11T11:11:46.642Z,5.78
2023-05-11T11:14:15.900Z,7.53
2023-05-11T11:17:15.247Z,8.55
2023-05-11T11:19:44.427Z,5.55
2023-05-11T11:22:36.219Z,5.85
2023-05-11T11:25:07.068Z,6.15
2023-05-11T11:27:49.404Z,5.35
2023-05-11T11:30:32.715Z,5.18
2023-05-11T11:33:08.771Z,6.25
2023-05-11T11:35:41.975Z,5.20
2023-05-11T11:38:11.878Z,7.55
2023-05-11T11:40:50.557Z,6.63
2023-05-11T11:43:25.127Z,7.25
2023-05-11T11:45:57.906Z,6.70
2023-05-11T11:48:40.737Z,8.73
2023-05-11T11:57:03.340Z,6.40
2023-05-11T11:59:30.911Z,6.97
2023-05-11T12:02:01.668Z,7.43
2023-05-11T12:04:39.303Z,7.00
2023-05-11T12:07:09.210Z,8.05
2023-05-11T12:09:37.178Z,7.22
2023-05-11T12:12:06.148Z,7.55
2023-05-11T12:14:33.731Z,5.32
2023-05-11T12:17:05.804Z,5.57
2023-05-11T12:19:32.770Z,5.07
2023-05-11T12:21:59.705Z,5.22
2023-05-11T12:24:27.042Z,6.55
2023-05-11T12:26:58.898Z,5.68
2023-05-11T12:29:28.817Z,6.82
2023-05-11T12:31:56.263Z,7.82
2023-05-11T12:34:23.625Z,4.40
2023-05-11T12:36:53.219Z,5.60
2023-05-11T12:39:21.018Z,6.30
2023-05-11T12:41:50.242Z,7.95
2023-05-11T12:44:18.162Z,7.05
2023-05-11T12:46:47.646Z,8.63
2023-05-11T12:52:13.465Z,7.82
2023-05-11T12:54:42.048Z,6.82
2023-05-11T12:57:23.197Z,10.10
2023-05-11T12:59:49.871Z,8.93
2023-05-11T13:02:18.588Z,7.13
2023-05-11T13:04:47.237Z,6.32
2023-05-11T13:07:23.332Z,9.25
2023-05-11T13:09:59.250Z,5.93
2023-05-11T13:12:26.556Z,7.07
2023-05-11T13:15:06.887Z,6.28
2023-05-11T13:17:37.222Z,3.80
2023-05-11T13:20:27.548Z,2.78
2023-05-11T13:23:07.931Z,1.35
2023-05-11T13:25:40.060Z,1.40
2023-05-11T13:28:07.280Z,2.03
2023-05-11T13:30:35.291Z,1.17
2023-05-11T13:33:02.521Z,1.50
2023-05-11T13:35:29.205Z,1.40
2023-05-11T13:37:56.426Z,1.90
2023-05-11T13:40:23.276Z,4.72
2023-05-11T13:42:50.086Z,1.42
2023-05-11T13:45:16.974Z,2.43
2023-05-11T13:47:45.681Z,2.15
2023-05-11T13:50:12.583Z,1.75
2023-05-11T13:52:40.872Z,1.90
2023-05-11T13:55:08.150Z,1.88
2023-05-11T13:57:34.905Z,3.35
2023-05-11T14:00:01.651Z,1.70
2023-05-11T14:02:28.633Z,4.85
2023-05-11T14:04:55.312Z,2.83
2023-05-11T14:07:24.020Z,1.92
2023-05-11T14:09:56.537Z,1.43
2023-05-11T14:12:23.115Z,1.90
2023-05-11T14:14:49.592Z,1.67
2023-05-11T14:17:16.327Z,1.52
2023-05-11T14:19:43.076Z,1.88
2023-05-11T14:22:09.612Z,2.20
2023-05-11T14:24:36.321Z,1.80
2023-05-11T14:27:04.529Z,1.77
2023-05-11T14:29:31.350Z,2.05
2023-05-11T14:31:58.065Z,1.83
2023-05-11T14:34:24.961Z,1.90
2023-05-11T14:36:51.826Z,1.77
2023-05-11T14:39:18.387Z,1.77
2023-05-11T14:41:45.110Z,3.75
2023-05-11T14:44:11.788Z,2.75
2023-05-11T14:46:38.847Z,3.13
2023-05-11T14:49:05.690Z,2.80
2023-05-11T14:51:32.442Z,1.90
2023-05-11T14:53:58.972Z,3.00
2023-05-11T14:56:31.504Z,3.45
2023-05-11T14:58:58.177Z,2.55
2023-05-11T15:01:24.802Z,2.65
2023-05-11T15:03:51.561Z,2.45
2023-05-11T15:06:22.294Z,2.95
2023-05-11T15:08:50.091Z,4.32
2023-05-11T15:11:17.779Z,3.33
2023-05-11T15:13:44.579Z,2.55
2023-05-11T15:16:11.171Z,2.92
2023-05-11T15:18:38.061Z,2.50
2023-05-11T15:21:06.074Z,2.10
2023-05-11T15:23:32.655Z,10.43
2023-05-11T15:25:59.754Z,2.92
2023-05-11T15:28:26.696Z,4.28
2023-05-11T15:30:53.335Z,3.33
2023-05-11T15:33:20.171Z,2.63
2023-05-11T15:35:46.841Z,3.97
2023-05-11T15:38:13.429Z,2.63
2023-05-11T15:40:39.988Z,2.42
2023-05-11T15:43:06.613Z,2.45
2023-05-11T15:45:33.391Z,2.25
2023-05-11T15:48:00.668Z,1.40
2023-05-11T15:50:27.368Z,2.28
2023-05-11T15:52:53.991Z,1.80
2023-05-11T15:55:20.624Z,2.75
2023-05-11T15:57:47.535Z,1.30
2023-05-11T16:00:15.785Z,1.67
2023-05-11T16:02:42.850Z,4.55
2023-05-11T16:05:09.975Z,2.28
2023-05-11T16:07:36.729Z,2.10
2023-05-11T16:10:03.698Z,2.10
2023-05-11T16:12:30.680Z,2.47
2023-05-11T16:14:57.589Z,1.75
2023-05-11T16:17:24.338Z,1.83
2023-05-11T16:19:51.073Z,1.88
2023-05-11T16:22:18.062Z,2.47
2023-05-11T16:24:44.708Z,1.53
2023-05-11T16:27:11.560Z,2.65
2023-05-11T16:29:38.322Z,1.50
2023-05-11T16:32:05.255Z,1.30
2023-05-11T16:34:31.993Z,1.35
2023-05-11T16:36:59.321Z,2.08
2023-05-11T16:39:27.078Z,1.83
2023-05-11T16:41:53.906Z,2.08
2023-05-11T16:44:21.156Z,2.35
2023-05-11T16:46:47.963Z,2.00
2023-05-11T16:49:14.931Z,2.00
2023-05-11T16:51:41.687Z,2.50
2023-05-11T16:54:08.806Z,2.08
2023-05-11T16:56:35.368Z,3.13
2023-05-11T16:59:02.324Z,2.80
2023-05-11T17:01:29.171Z,1.92
2023-05-11T17:03:56.071Z,2.47
2023-05-11T17:06:23.988Z,2.30
2023-05-11T17:08:51.295Z,7.88
2023-05-11T17:11:18.112Z,2.63
2023-05-11T17:13:44.681Z,2.43
2023-05-11T17:16:11.457Z,2.97
2023-05-11T17:18:38.100Z,2.38
2023-05-11T17:21:05.120Z,1.23
2023-05-11T17:23:32.495Z,1.83
2023-05-11T17:26:06.798Z,0.90
2023-05-11T17:28:33.597Z,1.00
2023-05-11T17:31:08.708Z,1.08
2023-05-11T17:33:35.606Z,1.10
2023-05-11T17:36:07.793Z,1.00
2023-05-11T17:38:34.508Z,4.10
2023-05-11T17:41:05.040Z,1.02
2023-05-11T17:43:32.905Z,1.52
2023-05-11T17:48:54.549Z,1.55
2023-05-11T17:51:21.919Z,1.33
2023-05-11T17:53:49.911Z,1.10
2023-05-11T17:56:16.849Z,1.63
2023-05-11T17:58:43.921Z,2.58
2023-05-11T18:01:20.402Z,2.00
2023-05-11T18:03:47.195Z,1.80
2023-05-11T18:06:14.115Z,2.33
2023-05-11T18:08:40.915Z,3.67
2023-05-11T18:11:10.070Z,2.85
2023-05-11T18:13:37.021Z,2.25
2023-05-11T18:18:59.840Z,2.50
2023-05-11T18:21:29.388Z,2.88
2023-05-11T18:23:56.632Z,3.05
2023-05-11T18:26:26.004Z,2.45
2023-05-11T18:28:55.035Z,2.72
2023-05-11T18:31:22.298Z,2.95
2023-05-11T18:33:49.561Z,5.03
2023-05-11T18:36:16.526Z,3.35
2023-05-11T18:38:44.020Z,2.60
2023-05-11T18:41:11.099Z,3.13
2023-05-11T18:43:38.006Z,2.42
2023-05-11T18:46:08.570Z,2.88
2023-05-11T18:48:35.569Z,3.00
2023-05-11T18:51:02.731Z,3.47
2023-05-11T18:53:29.334Z,2.78
2023-05-11T18:55:56.367Z,2.40
2023-05-11T18:58:23.698Z,2.65
2023-05-11T19:00:51.427Z,3.30
2023-05-11T19:03:22.247Z,2.80
2023-05-11T19:05:49.825Z,2.63
2023-05-11T19:08:16.761Z,4.38
2023-05-11T19:10:45.315Z,2.95
2023-05-11T19:13:13.145Z,2.50
2023-05-11T19:18:38.779Z,4.88
2023-05-11T19:21:06.083Z,2.55
2023-05-11T19:23:33.780Z,3.25
2023-05-11T19:26:00.735Z,3.50
2023-05-11T19:28:27.566Z,3.33
2023-05-11T19:31:01.905Z,3.63
2023-05-11T19:33:29.056Z,3.60
2023-05-11T19:35:55.857Z,4.38
2023-05-11T19:38:22.662Z,4.10
2023-05-11T19:40:49.518Z,4.22
2023-05-11T19:43:16.264Z,4.60
2023-05-11T19:48:40.137Z,4.65
2023-05-11T19:51:06.876Z,5.38
2023-05-11T19:53:33.942Z,5.20
2023-05-11T19:56:01.062Z,4.30
2023-05-11T19:58:27.877Z,6.80
2023-05-11T20:03:49.445Z,5.35
2023-05-11T20:06:16.243Z,5.78
2023-05-11T20:08:42.898Z,4.30
2023-05-11T20:11:09.757Z,5.43
2023-05-11T20:13:36.409Z,5.65
2023-05-11T20:16:10.130Z,5.35
2023-05-11T20:18:36.669Z,4.80
2023-05-11T20:21:03.326Z,4.90
2023-05-11T20:23:30.032Z,5.40
2023-05-11T20:25:56.504Z,4.82
2023-05-11T20:28:27.174Z,5.03
2023-05-11T20:30:56.403Z,4.90
2023-05-11T20:35:53.475Z,4.70
2023-05-11T20:38:20.548Z,5.78
2023-05-11T20:40:47.212Z,2.78
2023-05-11T20:43:14.909Z,2.37
2023-05-11T20:45:43.761Z,2.75
2023-05-11T20:48:10.988Z,4.88
2023-05-11T20:53:34.249Z,3.25
2023-05-11T20:56:03.050Z,3.90
2023-05-11T20:58:31.099Z,3.85
2023-05-11T21:00:58.100Z,3.95
2023-05-11T21:03:27.116Z,4.82
2023-05-11T21:05:53.948Z,4.32
2023-05-11T21:08:20.666Z,4.30
2023-05-11T21:10:47.278Z,3.42
2023-05-11T21:13:14.130Z,4.05
2023-05-11T21:15:48.140Z,4.05
2023-05-11T21:18:14.905Z,8.15
2023-05-11T21:20:42.099Z,3.50
2023-05-11T21:23:09.122Z,4.57
2023-05-11T21:25:35.778Z,4.03
2023-05-11T21:28:02.441Z,7.13
2023-05-11T21:30:32.964Z,3.83
2023-05-11T21:32:59.668Z,4.57
2023-05-11T21:35:26.397Z,4.82
2023-05-11T21:37:53.182Z,3.85
2023-05-11T21:40:19.943Z,3.40
2023-05-11T21:42:46.955Z,4.68
2023-05-11T21:45:13.678Z,3.90
2023-05-11T21:47:40.566Z,4.80
2023-05-11T21:50:08.697Z,3.50
2023-05-11T21:52:37.473Z,3.53
2023-05-11T21:55:04.836Z,4.35
2023-05-11T21:57:31.415Z,4.10
2023-05-11T21:59:57.939Z,3.97
2023-05-11T22:02:24.526Z,4.20
2023-05-11T22:04:51.165Z,4.43
2023-05-11T22:07:17.727Z,3.88
2023-05-11T22:09:44.343Z,3.50
2023-05-11T22:12:10.956Z,3.85
2023-05-11T22:14:37.635Z,6.18
2023-05-11T22:17:04.181Z,4.68
2023-05-11T22:19:31.874Z,6.53
2023-05-11T22:21:58.613Z,4.20
2023-05-11T22:24:27.050Z,4.38
2023-05-11T22:26:54.334Z,4.78
2023-05-11T22:29:21.341Z,6.85
2023-05-11T22:31:49.211Z,4.35
2023-05-11T22:34:15.926Z,4.80
2023-05-11T22:36:42.539Z,4.93
2023-05-11T22:39:11.350Z,5.88
2023-05-11T22:41:38.428Z,5.03
2023-05-11T22:44:05.195Z,3.30
2023-05-11T22:46:31.955Z,4.70
2023-05-11T22:48:59.023Z,5.15
2023-05-11T22:51:25.573Z,5.15
2023-05-11T22:53:52.219Z,3.47
2023-05-11T22:56:18.815Z,5.38
2023-05-11T22:58:45.531Z,4.37
2023-05-11T23:01:12.449Z,5.10
2023-05-11T23:03:39.297Z,10.80
2023-05-11T23:06:06.098Z,3.47
2023-05-11T23:08:32.622Z,4.53
2023-05-11T23:10:59.152Z,4.27
2023-05-11T23:13:25.688Z,3.78
2023-05-11T23:15:52.667Z,3.85
2023-05-11T23:18:19.546Z,4.85
2023-05-11T23:20:47.510Z,3.92
2023-05-11T23:23:14.132Z,3.93
2023-05-11T23:25:41.193Z,6.15
2023-05-11T23:28:11.587Z,5.00
2023-05-11T23:30:38.388Z,5.40
2023-05-11T23:33:05.026Z,3.63
2023-05-11T23:35:31.571Z,3.90
2023-05-11T23:37:58.127Z,4.05
2023-05-11T23:40:27.314Z,3.70
2023-05-11T23:42:54.390Z,4.50
2023-05-11T23:45:20.930Z,4.30
2023-05-11T23:47:47.679Z,4.33
2023-05-11T23:50:14.284Z,4.32
2023-05-11T23:52:40.850Z,6.70
2023-05-11T23:58:02.010Z,6.40
